This is the latest recevied weather packets stored in our database for station/object SP2TMT-10. If no packets are shown the sender has not sent any weather packets the latest 10 day(s).
| Time | Temp. | Humidity | Pressure | Rain* | Wind** | Luminosity | Snow |
|---|---|---|---|---|---|---|---|
| 1777755460 | 21.67° C | 40% | 1017.7 hPa | - | - | - | - |
| 1777754559 | 21.67° C | 41% | 1017.9 hPa | - | - | - | - |
| 1777753659 | 21.67° C | 41% | 1017.9 hPa | - | - | - | - |
| 1777752759 | 21.67° C | 42% | 1017.9 hPa | - | - | - | - |
| 1777751859 | 21.67° C | 43% | 1018 hPa | - | - | - | - |
| 1777750959 | 21.67° C | 44% | 1018.1 hPa | - | - | - | - |
| 1777750059 | 21.67° C | 45% | 1018.2 hPa | - | - | - | - |
| 1777749161 | 21.67° C | 46% | 1018.2 hPa | - | - | - | - |
| 1777748259 | 21.67° C | 48% | 1018.1 hPa | - | - | - | - |
| 1777747359 | 22.22° C | 48% | 1018 hPa | - | - | - | - |
| 1777746459 | 22.22° C | 49% | 1017.9 hPa | - | - | - | - |
| 1777745553 | 22.78° C | 51% | 1018 hPa | - | - | - | - |
| 1777744654 | 22.78° C | 55% | 1017.8 hPa | - | - | - | - |
| 1777743753 | 23.89° C | 55% | 1017.9 hPa | - | - | - | - |
| 1777742853 | 26.67° C | 68% | 1017.9 hPa | - | - | - | - |
| 1777741953 | 26.11° C | 51% | 1018 hPa | - | - | - | - |
| 1777741053 | 21.11° C | 36% | 1018.1 hPa | - | - | - | - |
| 1777740153 | 21.11° C | 41% | 1018.2 hPa | - | - | - | - |
| 1777739253 | 21.11° C | 41% | 1018.5 hPa | - | - | - | - |
| 1777738353 | 21.11° C | 40% | 1018.4 hPa | - | - | - | - |
| 1777737453 | 21.11° C | 38% | 1018.6 hPa | - | - | - | - |
| 1777736552 | 21.11° C | 42% | 1018.9 hPa | - | - | - | - |
| 1777735652 | 21.11° C | 46% | 1019 hPa | - | - | - | - |
| 1777734752 | 21.11° C | 47% | 1019.3 hPa | - | - | - | - |
| 1777733852 | 21.11° C | 41% | 1019.4 hPa | - | - | - | - |
* Rain since midnight (hover to see other rain measurements)
** Current wind speed in m/s (hover to see current wind gust speed)